Time;durP1;ratioP1;P1;durP2;ratioP2;P2;SDS_P1;SDS_P2;PMS_P1;PMS_P2;Temp;Humidity;BMP_temperature;BMP_pressure;BME280_temperature;BME280_humidity;BME280_pressure;Samples;Min_cycle;Max_cycle;Signal;HPM_P1;HPM_P2
2022/12/19 00:01:21;;;;;;;;;;;21.70;31.30;;;;;;500298;237;1924;-43
2022/12/19 00:03:23;;;;;;;;;;;21.70;31.30;;;;;;500529;237;1884;-44
2022/12/19 00:05:24;;;;;;;;;;;21.70;31.20;;;;;;500478;237;1744;-43
2022/12/19 00:07:26;;;;;;;;;;;21.70;31.30;;;;;;500244;237;1713;-44
2022/12/19 00:09:29;;;;;;;;;;;21.70;31.30;;;;;;500341;237;1576;-44
2022/12/19 00:11:30;;;;;;;;;;;21.70;31.20;;;;;;500192;238;1967;-43
2022/12/19 00:13:32;;;;;;;;;;;21.70;31.20;;;;;;500405;237;1676;-40
2022/12/19 00:15:33;;;;;;;;;;;21.70;31.20;;;;;;500247;238;2164;-43
2022/12/19 00:17:35;;;;;;;;;;;21.70;31.20;;;;;;500216;237;1693;-44
2022/12/19 00:19:37;;;;;;;;;;;21.80;31.20;;;;;;500278;237;1837;-44
2022/12/19 00:21:38;;;;;;;;;;;21.80;31.20;;;;;;500201;237;1882;-41
2022/12/19 00:23:40;;;;;;;;;;;21.70;31.10;;;;;;500098;237;1851;-44
2022/12/19 00:25:41;;;;;;;;;;;21.70;31.20;;;;;;500109;237;1825;-43
2022/12/19 00:27:43;;;;;;;;;;;21.70;31.20;;;;;;500080;237;2488;-40
2022/12/19 00:29:44;;;;;;;;;;;21.80;31.10;;;;;;500376;237;1879;-43
2022/12/19 00:31:45;;;;;;;;;;;22.00;30.90;;;;;;500233;237;1839;-41
2022/12/19 00:33:47;;;;;;;;;;;22.20;30.60;;;;;;500110;237;1686;-43
2022/12/19 00:35:49;;;;;;;;;;;22.30;30.50;;;;;;500297;237;2180;-41
2022/12/19 00:37:50;;;;;;;;;;;22.20;30.40;;;;;;500397;237;1926;-40
2022/12/19 00:39:52;;;;;;;;;;;22.10;30.60;;;;;;500375;237;1617;-42
2022/12/19 00:41:54;;;;;;;;;;;22.00;30.70;;;;;;500241;237;2010;-43
2022/12/19 00:43:55;;;;;;;;;;;22.00;30.80;;;;;;500279;237;2050;-40
2022/12/19 00:45:56;;;;;;;;;;;22.00;30.90;;;;;;500428;237;1694;-41
2022/12/19 00:47:58;;;;;;;;;;;21.90;30.90;;;;;;500461;237;1863;-40
2022/12/19 00:49:59;;;;;;;;;;;21.90;30.90;;;;;;500225;237;1853;-44
2022/12/19 00:52:01;;;;;;;;;;;21.90;30.80;;;;;;500226;237;2043;-42
2022/12/19 00:54:03;;;;;;;;;;;21.90;30.90;;;;;;500312;237;2140;-44
2022/12/19 00:56:04;;;;;;;;;;;21.90;31.00;;;;;;500231;237;2461;-43
2022/12/19 00:58:06;;;;;;;;;;;21.90;31.00;;;;;;500170;237;1761;-41
2022/12/19 01:00:07;;;;;;;;;;;21.90;30.90;;;;;;500313;237;2379;-44
2022/12/19 01:02:09;;;;;;;;;;;21.90;30.90;;;;;;500400;237;1921;-41
2022/12/19 01:04:11;;;;;;;;;;;22.00;31.00;;;;;;500482;237;1989;-44
2022/12/19 01:06:13;;;;;;;;;;;21.90;30.90;;;;;;500232;237;2168;-42
2022/12/19 01:08:14;;;;;;;;;;;21.90;31.00;;;;;;500106;237;1684;-43
2022/12/19 01:10:16;;;;;;;;;;;21.80;31.00;;;;;;500383;237;2085;-44
2022/12/19 01:14:37;;;;;;;;;;;22.00;31.00;;;;;;500348;238;2145;-44
2022/12/19 01:16:38;;;;;;;;;;;22.00;31.00;;;;;;500401;237;2328;-43
2022/12/19 01:18:40;;;;;;;;;;;21.90;30.90;;;;;;500784;237;1539;-43
2022/12/19 01:20:42;;;;;;;;;;;21.90;31.00;;;;;;500340;238;2129;-43
2022/12/19 01:22:43;;;;;;;;;;;21.80;31.00;;;;;;500418;237;1653;-44
2022/12/19 01:24:45;;;;;;;;;;;21.90;31.00;;;;;;500418;237;1716;-43
2022/12/19 01:26:46;;;;;;;;;;;21.90;30.90;;;;;;500401;237;1719;-44
2022/12/19 01:28:47;;;;;;;;;;;21.90;31.00;;;;;;500243;237;1673;-40
2022/12/19 01:30:49;;;;;;;;;;;21.90;31.00;;;;;;500176;237;1923;-43
2022/12/19 01:32:51;;;;;;;;;;;21.90;30.90;;;;;;500252;237;1849;-44
2022/12/19 01:34:52;;;;;;;;;;;21.90;30.90;;;;;;500290;237;2164;-44
2022/12/19 01:36:53;;;;;;;;;;;21.90;30.90;;;;;;500238;237;1895;-44
2022/12/19 01:38:55;;;;;;;;;;;21.90;31.00;;;;;;500432;237;1717;-43
2022/12/19 01:40:56;;;;;;;;;;;21.90;31.00;;;;;;500138;237;2238;-43
2022/12/19 01:42:57;;;;;;;;;;;21.90;31.00;;;;;;500172;237;1637;-43
2022/12/19 01:44:59;;;;;;;;;;;21.80;31.00;;;;;;500062;238;1890;-41
2022/12/19 01:47:01;;;;;;;;;;;21.80;31.00;;;;;;500119;237;2064;-41
2022/12/19 01:49:02;;;;;;;;;;;21.80;31.00;;;;;;500339;237;1776;-44
2022/12/19 01:51:03;;;;;;;;;;;21.90;31.10;;;;;;500227;237;2441;-41
2022/12/19 01:53:06;;;;;;;;;;;21.90;31.10;;;;;;500304;237;1911;-43
2022/12/19 01:55:08;;;;;;;;;;;21.80;31.00;;;;;;500230;237;2205;-43
2022/12/19 01:57:09;;;;;;;;;;;21.80;31.00;;;;;;500285;237;1785;-44
2022/12/19 01:59:11;;;;;;;;;;;21.80;31.10;;;;;;500185;237;2326;-41
2022/12/19 02:01:12;;;;;;;;;;;21.80;31.10;;;;;;500295;237;2164;-44
2022/12/19 02:03:13;;;;;;;;;;;21.70;31.00;;;;;;500193;237;1718;-44
2022/12/19 02:05:15;;;;;;;;;;;21.70;31.10;;;;;;500236;237;1747;-40
2022/12/19 02:07:16;;;;;;;;;;;21.70;31.20;;;;;;500270;237;2037;-44
2022/12/19 02:09:17;;;;;;;;;;;21.70;31.20;;;;;;500134;237;2384;-44
2022/12/19 02:11:19;;;;;;;;;;;21.70;31.20;;;;;;500018;237;2091;-44
2022/12/19 02:13:20;;;;;;;;;;;21.70;31.20;;;;;;500035;237;1979;-43
2022/12/19 02:15:22;;;;;;;;;;;21.70;31.20;;;;;;499932;237;2184;-44
2022/12/19 02:17:24;;;;;;;;;;;21.60;31.20;;;;;;499472;237;2922;-41
2022/12/19 02:19:25;;;;;;;;;;;21.60;31.20;;;;;;499762;237;2060;-42
2022/12/19 02:21:27;;;;;;;;;;;21.60;31.20;;;;;;499875;237;1772;-41
2022/12/19 02:23:28;;;;;;;;;;;21.60;31.20;;;;;;499891;237;1985;-44
2022/12/19 02:25:29;;;;;;;;;;;21.60;31.30;;;;;;500140;237;2414;-43
2022/12/19 02:27:31;;;;;;;;;;;21.60;31.20;;;;;;499992;238;2780;-43
2022/12/19 02:29:32;;;;;;;;;;;21.60;31.30;;;;;;500153;237;2516;-44
2022/12/19 02:31:33;;;;;;;;;;;21.60;31.40;;;;;;500244;237;1974;-44
2022/12/19 02:33:35;;;;;;;;;;;21.50;31.40;;;;;;500159;237;2030;-44
2022/12/19 02:35:36;;;;;;;;;;;21.50;31.30;;;;;;500461;237;2445;-44
2022/12/19 02:37:38;;;;;;;;;;;21.50;31.40;;;;;;500216;238;2191;-41
2022/12/19 02:39:39;;;;;;;;;;;21.50;31.40;;;;;;500141;237;1709;-44
2022/12/19 02:41:42;;;;;;;;;;;21.50;31.40;;;;;;500260;237;1913;-40
2022/12/19 02:43:44;;;;;;;;;;;21.50;31.50;;;;;;500110;237;1953;-43
2022/12/19 02:45:45;;;;;;;;;;;21.50;31.40;;;;;;500149;237;1973;-44
2022/12/19 02:47:46;;;;;;;;;;;21.50;31.40;;;;;;500124;237;1659;-44
2022/12/19 02:49:48;;;;;;;;;;;21.50;31.40;;;;;;500051;237;2542;-44
2022/12/19 02:51:49;;;;;;;;;;;21.50;31.50;;;;;;500168;237;2283;-40
2022/12/19 02:53:51;;;;;;;;;;;21.40;31.40;;;;;;500168;237;1656;-44
2022/12/19 02:55:52;;;;;;;;;;;21.40;31.50;;;;;;500316;238;2797;-43
2022/12/19 02:57:54;;;;;;;;;;;21.40;31.50;;;;;;500392;237;1943;-44
2022/12/19 02:59:55;;;;;;;;;;;21.40;31.50;;;;;;500359;237;1861;-44
2022/12/19 03:01:57;;;;;;;;;;;21.40;31.50;;;;;;500388;237;1624;-44
2022/12/19 03:03:58;;;;;;;;;;;21.40;31.50;;;;;;500566;237;2007;-44
2022/12/19 03:06:00;;;;;;;;;;;21.40;31.50;;;;;;500492;237;2292;-44
2022/12/19 03:08:02;;;;;;;;;;;21.40;31.50;;;;;;500530;237;1215;-44
2022/12/19 03:10:03;;;;;;;;;;;21.40;31.50;;;;;;500645;237;1609;-44
2022/12/19 03:12:04;;;;;;;;;;;21.40;31.60;;;;;;500589;237;1706;-41
2022/12/19 03:14:06;;;;;;;;;;;21.40;31.60;;;;;;500598;238;1711;-44
2022/12/19 03:16:08;;;;;;;;;;;21.40;31.60;;;;;;500505;237;2156;-44
2022/12/19 03:18:11;;;;;;;;;;;21.40;31.60;;;;;;500490;237;2424;-41
2022/12/19 03:20:13;;;;;;;;;;;21.40;31.60;;;;;;500773;237;1726;-42
2022/12/19 03:22:14;;;;;;;;;;;21.40;31.60;;;;;;500430;237;2513;-42
2022/12/19 03:24:16;;;;;;;;;;;21.40;31.50;;;;;;500450;237;2190;-44
2022/12/19 03:26:18;;;;;;;;;;;21.40;31.50;;;;;;500573;237;2629;-44
2022/12/19 03:28:19;;;;;;;;;;;21.30;31.50;;;;;;500581;237;2214;-44
2022/12/19 03:30:20;;;;;;;;;;;21.40;31.60;;;;;;500374;237;1422;-40
2022/12/19 03:32:22;;;;;;;;;;;21.40;31.60;;;;;;500406;237;2435;-44
2022/12/19 03:34:23;;;;;;;;;;;21.40;31.60;;;;;;500389;237;1982;-44
2022/12/19 03:36:24;;;;;;;;;;;21.40;31.50;;;;;;500493;237;2132;-42
2022/12/19 03:38:26;;;;;;;;;;;21.60;31.20;;;;;;500346;237;2420;-44
2022/12/19 03:40:27;;;;;;;;;;;21.90;31.00;;;;;;500412;237;2252;-44
2022/12/19 03:44:48;;;;;;;;;;;22.10;30.50;;;;;;500522;238;1774;-44
2022/12/19 03:46:49;;;;;;;;;;;22.30;30.30;;;;;;500410;237;2042;-42
2022/12/19 03:48:51;;;;;;;;;;;22.40;30.20;;;;;;500439;237;1617;-44
2022/12/19 03:50:52;;;;;;;;;;;22.40;30.10;;;;;;500391;237;1894;-44
2022/12/19 03:52:54;;;;;;;;;;;22.50;30.00;;;;;;500305;237;1627;-43
2022/12/19 03:54:55;;;;;;;;;;;22.60;30.00;;;;;;500466;237;1920;-42
2022/12/19 03:56:57;;;;;;;;;;;22.60;30.00;;;;;;500427;237;2385;-44
2022/12/19 03:58:58;;;;;;;;;;;22.60;29.90;;;;;;500568;237;1750;-43
2022/12/19 04:01:00;;;;;;;;;;;22.70;29.90;;;;;;500400;237;1699;-44
2022/12/19 04:03:02;;;;;;;;;;;22.70;29.80;;;;;;500624;237;2291;-44
2022/12/19 04:05:03;;;;;;;;;;;22.80;29.80;;;;;;500482;237;1933;-44
2022/12/19 04:07:05;;;;;;;;;;;22.80;29.80;;;;;;500538;237;2086;-43
2022/12/19 04:09:06;;;;;;;;;;;22.80;29.70;;;;;;500387;237;1806;-41
2022/12/19 04:11:07;;;;;;;;;;;22.90;29.70;;;;;;500451;238;2067;-44
2022/12/19 04:13:10;;;;;;;;;;;22.90;29.70;;;;;;500428;237;1983;-41
2022/12/19 04:15:11;;;;;;;;;;;22.90;29.60;;;;;;500312;238;2020;-44
2022/12/19 04:17:12;;;;;;;;;;;22.90;29.60;;;;;;500482;237;2196;-44
2022/12/19 04:19:13;;;;;;;;;;;23.00;29.60;;;;;;500717;237;1790;-44
2022/12/19 04:21:14;;;;;;;;;;;23.00;29.60;;;;;;500408;237;2148;-44
2022/12/19 04:23:16;;;;;;;;;;;23.00;29.50;;;;;;500599;237;1680;-44
2022/12/19 04:25:17;;;;;;;;;;;23.00;29.50;;;;;;500583;237;2412;-43
2022/12/19 04:27:19;;;;;;;;;;;23.10;29.50;;;;;;500409;237;2211;-44
2022/12/19 04:29:20;;;;;;;;;;;23.10;29.50;;;;;;500345;237;2268;-43
2022/12/19 04:31:22;;;;;;;;;;;23.10;29.50;;;;;;500418;237;2181;-41
2022/12/19 04:33:24;;;;;;;;;;;23.10;29.50;;;;;;500473;237;2172;-40
2022/12/19 04:35:25;;;;;;;;;;;23.10;29.40;;;;;;500411;237;2431;-42
2022/12/19 04:37:26;;;;;;;;;;;23.10;29.40;;;;;;500211;237;2187;-42
2022/12/19 04:39:28;;;;;;;;;;;23.20;29.40;;;;;;500393;237;1832;-44
2022/12/19 04:41:30;;;;;;;;;;;23.20;29.40;;;;;;499803;238;1986;-41
2022/12/19 04:43:31;;;;;;;;;;;23.20;29.40;;;;;;500271;237;2289;-44
2022/12/19 04:45:32;;;;;;;;;;;23.20;29.30;;;;;;500238;237;1768;-44
2022/12/19 04:47:34;;;;;;;;;;;23.20;29.40;;;;;;499820;238;2037;-41
2022/12/19 04:49:35;;;;;;;;;;;23.30;29.40;;;;;;500584;237;1740;-43
2022/12/19 04:51:36;;;;;;;;;;;23.30;29.30;;;;;;500313;237;1772;-44
2022/12/19 04:53:38;;;;;;;;;;;23.30;29.30;;;;;;500712;237;2614;-41
2022/12/19 04:55:40;;;;;;;;;;;23.30;29.30;;;;;;500575;237;3065;-43
2022/12/19 04:57:40;;;;;;;;;;;23.30;29.30;;;;;;500459;237;2678;-41
2022/12/19 04:59:42;;;;;;;;;;;23.30;29.30;;;;;;500505;237;1677;-44
2022/12/19 05:01:43;;;;;;;;;;;23.30;29.30;;;;;;500664;238;1354;-41
2022/12/19 05:03:44;;;;;;;;;;;23.30;29.30;;;;;;500764;237;1415;-41
2022/12/19 05:05:46;;;;;;;;;;;23.40;29.30;;;;;;500898;237;1703;-44
2022/12/19 05:07:48;;;;;;;;;;;23.30;29.20;;;;;;500735;237;2170;-44
2022/12/19 05:09:49;;;;;;;;;;;23.40;29.30;;;;;;500591;237;2011;-40
2022/12/19 05:11:50;;;;;;;;;;;23.40;29.30;;;;;;500558;237;2620;-40
2022/12/19 05:13:52;;;;;;;;;;;23.40;29.20;;;;;;500601;238;3664;-41
2022/12/19 05:15:54;;;;;;;;;;;23.40;29.20;;;;;;500610;237;1954;-43
2022/12/19 05:17:55;;;;;;;;;;;23.40;29.20;;;;;;500952;237;2184;-44
2022/12/19 05:19:56;;;;;;;;;;;23.40;29.20;;;;;;500378;237;2379;-42
2022/12/19 05:21:58;;;;;;;;;;;23.40;29.20;;;;;;500365;237;2204;-44
2022/12/19 05:23:59;;;;;;;;;;;23.40;29.20;;;;;;500421;237;2391;-43
2022/12/19 05:26:01;;;;;;;;;;;23.40;29.20;;;;;;500318;237;2273;-43
2022/12/19 05:28:02;;;;;;;;;;;23.40;29.20;;;;;;500293;237;1980;-43
2022/12/19 05:30:04;;;;;;;;;;;23.40;29.20;;;;;;500148;237;2471;-44
2022/12/19 05:32:06;;;;;;;;;;;23.50;29.20;;;;;;500266;237;1720;-43
2022/12/19 05:34:07;;;;;;;;;;;23.50;29.20;;;;;;500071;237;2246;-44
2022/12/19 05:36:08;;;;;;;;;;;23.50;29.20;;;;;;500144;237;2240;-43
2022/12/19 05:38:10;;;;;;;;;;;23.50;29.20;;;;;;500008;237;1840;-41
2022/12/19 05:40:12;;;;;;;;;;;23.50;29.20;;;;;;500266;237;1774;-44
2022/12/19 05:42:13;;;;;;;;;;;23.50;29.10;;;;;;500110;238;1947;-44
2022/12/19 05:44:14;;;;;;;;;;;23.50;29.10;;;;;;500162;237;2034;-44
2022/12/19 05:46:17;;;;;;;;;;;23.50;29.20;;;;;;500067;237;1664;-42
2022/12/19 05:48:18;;;;;;;;;;;23.50;29.10;;;;;;500341;237;1872;-44
2022/12/19 05:50:22;;;;;;;;;;;23.50;29.20;;;;;;500377;237;2489;-41
2022/12/19 05:52:23;;;;;;;;;;;23.50;29.10;;;;;;500227;237;2101;-44
2022/12/19 05:54:25;;;;;;;;;;;23.50;29.20;;;;;;500602;237;1940;-43
2022/12/19 05:56:26;;;;;;;;;;;23.50;29.10;;;;;;500361;237;2161;-41
2022/12/19 05:58:27;;;;;;;;;;;23.50;29.10;;;;;;500549;237;3010;-45
2022/12/19 06:00:29;;;;;;;;;;;23.60;29.20;;;;;;500322;237;1906;-41
2022/12/19 06:02:30;;;;;;;;;;;23.50;29.10;;;;;;500229;237;2708;-43
2022/12/19 06:04:32;;;;;;;;;;;23.60;29.10;;;;;;500321;237;2469;-44
2022/12/19 06:06:33;;;;;;;;;;;23.60;29.10;;;;;;500279;237;1655;-40
2022/12/19 06:08:34;;;;;;;;;;;23.60;29.10;;;;;;500206;237;1817;-42
2022/12/19 06:10:36;;;;;;;;;;;23.60;29.10;;;;;;500162;237;1915;-44
2022/12/19 06:12:37;;;;;;;;;;;23.60;29.20;;;;;;500245;237;2186;-41
2022/12/19 06:14:38;;;;;;;;;;;23.50;29.10;;;;;;500299;237;2027;-43
2022/12/19 06:16:40;;;;;;;;;;;23.40;29.30;;;;;;500218;237;2459;-43
2022/12/19 06:18:41;;;;;;;;;;;23.20;29.50;;;;;;500403;237;1939;-40
2022/12/19 06:20:43;;;;;;;;;;;23.00;29.70;;;;;;500338;237;2443;-44
2022/12/19 06:22:44;;;;;;;;;;;22.80;29.90;;;;;;500212;237;1876;-41
2022/12/19 06:24:45;;;;;;;;;;;22.70;30.00;;;;;;500269;237;1849;-44
2022/12/19 06:26:47;;;;;;;;;;;22.60;30.00;;;;;;500253;237;2498;-44
2022/12/19 06:28:49;;;;;;;;;;;22.50;30.20;;;;;;500289;237;1907;-40
2022/12/19 06:30:50;;;;;;;;;;;22.40;30.30;;;;;;500131;237;2114;-43
2022/12/19 06:32:51;;;;;;;;;;;22.30;30.40;;;;;;500125;237;1870;-44
2022/12/19 06:34:53;;;;;;;;;;;22.30;30.60;;;;;;500268;237;2226;-43
2022/12/19 06:36:54;;;;;;;;;;;22.20;30.60;;;;;;500141;237;2208;-44
2022/12/19 06:38:56;;;;;;;;;;;22.20;30.70;;;;;;500083;237;1768;-44
2022/12/19 06:43:17;;;;;;;;;;;22.10;30.80;;;;;;500468;238;1724;-41
2022/12/19 06:45:18;;;;;;;;;;;22.10;30.80;;;;;;500436;238;2142;-44
2022/12/19 06:47:20;;;;;;;;;;;22.00;30.80;;;;;;500456;237;1961;-43
2022/12/19 06:49:21;;;;;;;;;;;22.00;30.90;;;;;;500430;237;2099;-43
2022/12/19 06:51:23;;;;;;;;;;;22.00;31.10;;;;;;500495;237;1481;-41
2022/12/19 06:53:25;;;;;;;;;;;22.00;31.00;;;;;;500542;237;2716;-41
2022/12/19 06:55:27;;;;;;;;;;;22.00;31.10;;;;;;500431;237;1375;-44
2022/12/19 06:57:28;;;;;;;;;;;22.00;31.10;;;;;;500339;237;2141;-42
2022/12/19 06:59:30;;;;;;;;;;;21.90;31.00;;;;;;500456;237;1717;-43
2022/12/19 07:01:32;;;;;;;;;;;21.90;31.10;;;;;;500322;237;2202;-44
2022/12/19 07:03:35;;;;;;;;;;;21.90;31.10;;;;;;500537;237;1685;-43
2022/12/19 07:05:36;;;;;;;;;;;21.90;31.10;;;;;;500586;237;1692;-41
2022/12/19 07:07:37;;;;;;;;;;;21.80;31.10;;;;;;500550;237;1672;-40
2022/12/19 07:09:40;;;;;;;;;;;21.80;31.20;;;;;;500434;237;2126;-44
2022/12/19 07:11:41;;;;;;;;;;;21.80;31.20;;;;;;500366;237;2235;-43
2022/12/19 07:13:43;;;;;;;;;;;21.80;31.20;;;;;;500279;237;1972;-43
2022/12/19 07:15:45;;;;;;;;;;;21.80;31.10;;;;;;500284;237;1599;-43
2022/12/19 07:17:46;;;;;;;;;;;21.80;31.10;;;;;;500500;237;2177;-44
2022/12/19 07:19:47;;;;;;;;;;;21.80;31.00;;;;;;500421;237;2163;-44
2022/12/19 07:21:49;;;;;;;;;;;21.80;31.00;;;;;;500264;238;2197;-39
2022/12/19 07:23:50;;;;;;;;;;;21.80;31.00;;;;;;500548;237;2060;-43
2022/12/19 07:25:52;;;;;;;;;;;21.80;31.00;;;;;;500245;237;2184;-44
2022/12/19 07:27:53;;;;;;;;;;;21.70;31.00;;;;;;500398;237;1542;-41
2022/12/19 07:29:56;;;;;;;;;;;21.70;31.00;;;;;;500231;237;2037;-43
2022/12/19 07:31:57;;;;;;;;;;;21.80;31.00;;;;;;500185;237;2597;-43
2022/12/19 07:33:59;;;;;;;;;;;21.80;31.00;;;;;;500446;237;2060;-40
2022/12/19 07:36:03;;;;;;;;;;;21.80;31.00;;;;;;500299;237;1720;-40
2022/12/19 07:38:05;;;;;;;;;;;21.70;30.90;;;;;;500249;237;2179;-43
2022/12/19 07:40:06;;;;;;;;;;;21.80;31.00;;;;;;500552;237;1968;-42
2022/12/19 07:42:08;;;;;;;;;;;21.70;30.90;;;;;;500319;237;1812;-43
2022/12/19 07:44:12;;;;;;;;;;;21.80;31.00;;;;;;500274;237;1760;-43
2022/12/19 07:46:13;;;;;;;;;;;21.80;31.00;;;;;;500237;238;2031;-43
2022/12/19 07:48:15;;;;;;;;;;;21.70;30.90;;;;;;500408;237;1800;-43
2022/12/19 07:50:16;;;;;;;;;;;21.70;30.90;;;;;;500465;237;1832;-40
2022/12/19 07:52:18;;;;;;;;;;;21.70;30.90;;;;;;499952;238;2429;-43
2022/12/19 07:54:19;;;;;;;;;;;21.70;30.90;;;;;;500176;237;1897;-44
2022/12/19 07:56:22;;;;;;;;;;;21.70;30.90;;;;;;500184;237;2746;-42
2022/12/19 07:58:23;;;;;;;;;;;21.70;30.90;;;;;;500391;237;2161;-41
2022/12/19 08:00:25;;;;;;;;;;;21.70;30.90;;;;;;500332;237;1912;-40
2022/12/19 08:02:27;;;;;;;;;;;21.70;30.90;;;;;;500245;238;2274;-42
2022/12/19 08:04:28;;;;;;;;;;;21.70;30.90;;;;;;500499;237;1931;-43
2022/12/19 08:06:29;;;;;;;;;;;21.70;30.80;;;;;;500355;237;2231;-44
2022/12/19 08:08:34;;;;;;;;;;;21.80;30.90;;;;;;500323;237;2638;-41
2022/12/19 08:10:36;;;;;;;;;;;21.80;30.80;;;;;;500253;237;2291;-43
2022/12/19 08:12:37;;;;;;;;;;;21.80;30.80;;;;;;500265;237;2920;-44
2022/12/19 08:14:38;;;;;;;;;;;21.80;30.70;;;;;;499966;237;2808;-40
2022/12/19 08:16:40;;;;;;;;;;;21.80;30.70;;;;;;500119;237;1693;-43
2022/12/19 08:18:42;;;;;;;;;;;21.80;30.70;;;;;;500000;237;3384;-43
2022/12/19 08:20:43;;;;;;;;;;;21.80;30.60;;;;;;499993;237;2636;-43
2022/12/19 08:22:44;;;;;;;;;;;21.80;30.60;;;;;;500062;237;2186;-44
2022/12/19 08:24:46;;;;;;;;;;;21.90;30.60;;;;;;499819;237;1703;-43
2022/12/19 08:26:47;;;;;;;;;;;21.90;30.60;;;;;;499831;237;1891;-44
2022/12/19 08:28:48;;;;;;;;;;;21.90;30.60;;;;;;499855;237;1757;-43
2022/12/19 08:30:50;;;;;;;;;;;21.90;30.50;;;;;;499656;237;1842;-44
2022/12/19 08:32:51;;;;;;;;;;;22.00;30.40;;;;;;499928;237;2006;-43
2022/12/19 08:34:53;;;;;;;;;;;22.20;30.20;;;;;;500080;237;2028;-43
2022/12/19 08:36:54;;;;;;;;;;;22.40;30.00;;;;;;500087;237;2009;-44
2022/12/19 08:38:56;;;;;;;;;;;22.40;29.90;;;;;;500066;237;2180;-44
2022/12/19 08:40:57;;;;;;;;;;;22.40;29.90;;;;;;500001;237;1650;-44
2022/12/19 08:43:01;;;;;;;;;;;22.30;30.00;;;;;;499991;237;1908;-43
2022/12/19 08:45:03;;;;;;;;;;;22.20;30.00;;;;;;499976;237;1923;-43
2022/12/19 08:47:04;;;;;;;;;;;22.20;30.00;;;;;;499905;237;1815;-43
2022/12/19 08:49:06;;;;;;;;;;;22.10;30.10;;;;;;500324;237;1491;-44
2022/12/19 08:51:07;;;;;;;;;;;22.10;30.20;;;;;;499866;237;1899;-43
2022/12/19 08:53:08;;;;;;;;;;;22.10;30.20;;;;;;500151;237;1828;-43
2022/12/19 08:55:10;;;;;;;;;;;22.10;30.20;;;;;;500181;237;1170;-44
2022/12/19 08:57:11;;;;;;;;;;;22.10;30.20;;;;;;499987;237;1631;-44
2022/12/19 08:59:12;;;;;;;;;;;22.10;30.20;;;;;;500303;237;2176;-43
2022/12/19 09:01:15;;;;;;;;;;;22.10;30.20;;;;;;499977;237;1180;-43
2022/12/19 09:03:15;;;;;;;;;;;22.10;30.20;;;;;;500255;238;2039;-43
2022/12/19 09:05:17;;;;;;;;;;;22.10;30.20;;;;;;500125;237;1728;-44
2022/12/19 09:07:18;;;;;;;;;;;22.10;30.20;;;;;;500176;237;2056;-44
2022/12/19 09:09:20;;;;;;;;;;;22.10;30.20;;;;;;500167;237;1645;-43
2022/12/19 09:11:21;;;;;;;;;;;22.10;30.20;;;;;;500085;237;1740;-44
2022/12/19 09:13:23;;;;;;;;;;;22.20;30.20;;;;;;500091;237;1519;-40
2022/12/19 09:15:25;;;;;;;;;;;22.20;30.10;;;;;;500276;237;1588;-43
2022/12/19 09:17:26;;;;;;;;;;;22.10;30.10;;;;;;500037;237;2152;-44
2022/12/19 09:19:28;;;;;;;;;;;22.10;30.10;;;;;;500134;237;1575;-40
2022/12/19 09:21:29;;;;;;;;;;;22.10;30.10;;;;;;500187;237;1889;-43
2022/12/19 09:23:31;;;;;;;;;;;22.10;30.10;;;;;;500158;237;1755;-44
2022/12/19 09:25:33;;;;;;;;;;;22.10;30.10;;;;;;500336;237;1819;-43
2022/12/19 09:27:39;;;;;;;;;;;22.10;30.10;;;;;;500335;237;2103;-43
2022/12/19 09:29:41;;;;;;;;;;;22.10;30.10;;;;;;499906;237;2325;-43
2022/12/19 09:31:42;;;;;;;;;;;22.10;30.10;;;;;;500105;237;1830;-43
2022/12/19 09:33:44;;;;;;;;;;;22.20;30.10;;;;;;499868;237;1679;-43
2022/12/19 09:35:45;;;;;;;;;;;22.10;30.10;;;;;;500019;237;1803;-43
2022/12/19 09:37:47;;;;;;;;;;;22.20;30.10;;;;;;499953;237;2159;-43
2022/12/19 09:39:48;;;;;;;;;;;22.20;30.00;;;;;;500076;237;2052;-42
2022/12/19 09:41:50;;;;;;;;;;;22.20;30.00;;;;;;500211;237;1733;-43
2022/12/19 09:43:52;;;;;;;;;;;22.20;30.00;;;;;;500225;237;1789;-40
2022/12/19 09:45:55;;;;;;;;;;;22.20;30.00;;;;;;500177;237;1788;-43
2022/12/19 09:47:57;;;;;;;;;;;22.20;30.00;;;;;;500271;237;1696;-44
2022/12/19 09:49:59;;;;;;;;;;;22.20;30.00;;;;;;500520;237;2196;-41
2022/12/19 09:52:01;;;;;;;;;;;22.20;30.00;;;;;;500385;237;1274;-42
2022/12/19 09:54:02;;;;;;;;;;;22.30;30.00;;;;;;500110;238;1761;-43
2022/12/19 09:56:04;;;;;;;;;;;22.30;30.00;;;;;;499951;237;1793;-43
2022/12/19 09:58:05;;;;;;;;;;;22.20;30.00;;;;;;500255;237;2143;-43
2022/12/19 10:00:07;;;;;;;;;;;22.20;30.00;;;;;;500402;237;1758;-43
2022/12/19 10:02:08;;;;;;;;;;;22.20;30.00;;;;;;500054;237;1751;-41
2022/12/19 10:04:10;;;;;;;;;;;22.20;30.00;;;;;;500373;237;1510;-40
2022/12/19 10:06:12;;;;;;;;;;;22.20;30.00;;;;;;500208;237;1218;-41
2022/12/19 10:08:13;;;;;;;;;;;22.20;30.00;;;;;;500275;237;1619;-43
2022/12/19 10:10:15;;;;;;;;;;;22.20;30.00;;;;;;500388;237;1665;-41
2022/12/19 10:12:16;;;;;;;;;;;22.20;30.00;;;;;;500181;237;1884;-43
2022/12/19 10:14:18;;;;;;;;;;;22.20;30.00;;;;;;500202;238;1823;-41
2022/12/19 10:16:19;;;;;;;;;;;22.20;30.00;;;;;;500177;237;1670;-41
2022/12/19 10:18:20;;;;;;;;;;;22.20;30.00;;;;;;500168;237;2178;-41
2022/12/19 10:20:22;;;;;;;;;;;22.20;30.00;;;;;;500324;237;1687;-44
2022/12/19 10:22:23;;;;;;;;;;;22.30;30.00;;;;;;500346;237;1921;-43
2022/12/19 10:24:25;;;;;;;;;;;22.20;30.00;;;;;;500215;237;1679;-43
2022/12/19 10:26:26;;;;;;;;;;;22.20;30.00;;;;;;499894;238;2130;-43
2022/12/19 10:28:28;;;;;;;;;;;22.20;30.00;;;;;;500374;237;1621;-41
2022/12/19 10:30:29;;;;;;;;;;;22.20;30.00;;;;;;500057;237;1888;-43
2022/12/19 10:32:31;;;;;;;;;;;22.20;30.00;;;;;;500223;237;2135;-43
2022/12/19 10:34:33;;;;;;;;;;;22.10;30.10;;;;;;500429;237;1829;-41
2022/12/19 10:36:34;;;;;;;;;;;22.10;30.10;;;;;;500377;237;2115;-43
2022/12/19 10:38:36;;;;;;;;;;;22.10;30.10;;;;;;500383;237;2208;-40
2022/12/19 10:40:38;;;;;;;;;;;22.10;30.10;;;;;;500137;237;1973;-43
2022/12/19 10:42:39;;;;;;;;;;;22.10;30.10;;;;;;500162;237;2049;-43
2022/12/19 10:44:41;;;;;;;;;;;22.10;30.20;;;;;;500235;237;1825;-44
2022/12/19 10:46:43;;;;;;;;;;;22.00;30.10;;;;;;500233;237;1732;-42
2022/12/19 10:48:43;;;;;;;;;;;22.00;30.20;;;;;;500315;237;2071;-44
2022/12/19 10:50:45;;;;;;;;;;;22.00;30.20;;;;;;500075;237;1671;-43
2022/12/19 10:52:46;;;;;;;;;;;22.00;30.30;;;;;;500121;237;1679;-43
2022/12/19 10:54:47;;;;;;;;;;;22.00;30.20;;;;;;500279;237;2123;-43
2022/12/19 10:56:49;;;;;;;;;;;21.90;30.30;;;;;;500125;237;1693;-41
2022/12/19 10:58:50;;;;;;;;;;;21.90;30.30;;;;;;500007;237;2184;-43
2022/12/19 11:00:51;;;;;;;;;;;21.90;30.30;;;;;;500175;237;1656;-44
2022/12/19 11:02:53;;;;;;;;;;;21.90;30.30;;;;;;500169;237;1644;-43
2022/12/19 11:04:55;;;;;;;;;;;21.90;30.30;;;;;;500194;237;2052;-43
2022/12/19 11:06:56;;;;;;;;;;;21.90;30.30;;;;;;500029;237;1873;-43
2022/12/19 11:08:58;;;;;;;;;;;21.90;30.30;;;;;;500207;237;1769;-43
2022/12/19 11:10:59;;;;;;;;;;;21.90;30.30;;;;;;500181;237;1715;-43
2022/12/19 11:13:00;;;;;;;;;;;21.90;30.30;;;;;;500267;237;1708;-43
2022/12/19 11:15:03;;;;;;;;;;;21.90;30.40;;;;;;500075;237;1746;-43
2022/12/19 11:17:05;;;;;;;;;;;21.90;30.30;;;;;;500114;237;1435;-40
2022/12/19 11:19:06;;;;;;;;;;;21.90;30.30;;;;;;500209;237;2148;-44
2022/12/19 11:21:07;;;;;;;;;;;21.90;30.30;;;;;;500241;237;2033;-43
2022/12/19 11:23:08;;;;;;;;;;;21.90;30.30;;;;;;500253;237;1948;-43
2022/12/19 11:25:11;;;;;;;;;;;21.90;30.40;;;;;;500336;237;1706;-40
2022/12/19 11:27:12;;;;;;;;;;;21.90;30.40;;;;;;500086;237;1553;-41
2022/12/19 11:29:14;;;;;;;;;;;21.90;30.40;;;;;;500380;237;1647;-40
2022/12/19 11:31:15;;;;;;;;;;;21.90;30.40;;;;;;500156;237;1802;-42
2022/12/19 11:33:17;;;;;;;;;;;21.80;30.30;;;;;;500360;237;1442;-43
2022/12/19 11:35:18;;;;;;;;;;;21.90;30.40;;;;;;500344;237;1868;-43
2022/12/19 11:37:20;;;;;;;;;;;21.90;30.40;;;;;;500253;237;2154;-41
2022/12/19 11:39:21;;;;;;;;;;;21.80;30.40;;;;;;500379;237;2172;-44
2022/12/19 11:41:23;;;;;;;;;;;21.80;30.30;;;;;;500203;237;1892;-43
2022/12/19 11:43:24;;;;;;;;;;;21.80;30.30;;;;;;500277;237;1830;-43
2022/12/19 11:45:26;;;;;;;;;;;21.90;30.40;;;;;;500224;237;2287;-42
2022/12/19 11:47:27;;;;;;;;;;;21.80;30.30;;;;;;500176;237;1792;-42
2022/12/19 11:49:29;;;;;;;;;;;21.80;30.40;;;;;;500185;237;2371;-41
2022/12/19 11:51:30;;;;;;;;;;;21.80;30.30;;;;;;500115;237;2149;-41
2022/12/19 11:53:31;;;;;;;;;;;21.80;30.40;;;;;;500065;237;2341;-43
2022/12/19 11:55:33;;;;;;;;;;;21.80;30.40;;;;;;500084;237;1686;-43
2022/12/19 11:57:34;;;;;;;;;;;21.80;30.40;;;;;;499998;237;1652;-43
2022/12/19 11:59:35;;;;;;;;;;;21.70;30.40;;;;;;499956;237;2190;-44
2022/12/19 12:01:37;;;;;;;;;;;21.80;30.50;;;;;;499875;237;1712;-41
2022/12/19 12:03:38;;;;;;;;;;;21.80;30.40;;;;;;499901;237;1608;-43
2022/12/19 12:05:40;;;;;;;;;;;21.80;30.60;;;;;;499739;237;1803;-43